createdAt,value
2023-02-15T00:01:40.304Z,96.17
2023-02-15T00:03:41.627Z,96.18
2023-02-15T00:05:43.422Z,96.26
2023-02-15T00:07:44.907Z,96.25
2023-02-15T00:09:46.523Z,96.22
2023-02-15T00:11:48.091Z,96.22
2023-02-15T00:13:50.048Z,96.19
2023-02-15T00:15:51.600Z,96.24
2023-02-15T00:17:53.242Z,96.21
2023-02-15T00:19:54.625Z,96.17
2023-02-15T00:21:56.357Z,96.11
2023-02-15T00:23:57.905Z,96.11
2023-02-15T00:25:59.361Z,96.14
2023-02-15T00:28:00.279Z,96.06
2023-02-15T00:30:01.618Z,96.15
2023-02-15T00:34:05.319Z,96.26
2023-02-15T00:36:07.203Z,96.29
2023-02-15T00:38:08.540Z,96.39
2023-02-15T00:40:10.159Z,96.44
2023-02-15T00:42:11.298Z,96.41
2023-02-15T00:44:12.988Z,96.43
2023-02-15T00:46:14.660Z,96.47
2023-02-15T00:48:16.064Z,96.53
2023-02-15T00:50:17.514Z,96.65
2023-02-15T00:52:18.741Z,96.53
2023-02-15T00:54:20.669Z,96.62
2023-02-15T00:56:21.873Z,96.68
2023-02-15T00:58:22.938Z,96.7
2023-02-15T01:00:24.626Z,96.68
2023-02-15T01:02:26.099Z,96.59
2023-02-15T01:04:28.162Z,96.58
2023-02-15T01:06:29.323Z,96.58
2023-02-15T01:08:30.908Z,96.53
2023-02-15T01:10:32.493Z,96.62
2023-02-15T01:12:33.672Z,96.53
2023-02-15T01:16:36.885Z,96.62
2023-02-15T01:18:38.571Z,96.57
2023-02-15T01:20:40.477Z,96.6
2023-02-15T01:22:41.929Z,96.65
2023-02-15T01:24:42.995Z,96.65
2023-02-15T01:26:44.186Z,96.7
2023-02-15T01:28:46.095Z,96.77
2023-02-15T01:30:47.973Z,96.74
2023-02-15T01:32:49.198Z,96.71
2023-02-15T01:34:50.690Z,96.72
2023-02-15T01:36:52.481Z,96.78
2023-02-15T01:38:54.370Z,96.79
2023-02-15T01:40:56.253Z,96.73
2023-02-15T01:42:58.061Z,96.76
2023-02-15T01:44:59.244Z,96.82
2023-02-15T01:47:00.630Z,96.81
2023-02-15T01:49:02.225Z,96.8
2023-02-15T01:51:04.286Z,96.82
2023-02-15T01:53:05.136Z,96.82
2023-02-15T01:55:07.235Z,96.84
2023-02-15T01:59:09.673Z,96.83
2023-02-15T02:01:11.007Z,96.75
2023-02-15T02:03:12.218Z,96.83
2023-02-15T02:05:13.750Z,96.81
2023-02-15T02:07:15.805Z,96.84
2023-02-15T02:09:17.812Z,96.88
2023-02-15T02:11:18.899Z,96.86
2023-02-15T02:13:20.614Z,96.82
2023-02-15T02:15:22.069Z,96.74
2023-02-15T02:17:24.028Z,96.79
2023-02-15T02:19:25.802Z,96.8
2023-02-15T02:21:27.661Z,96.74
2023-02-15T02:23:29.428Z,96.79
2023-02-15T02:25:30.591Z,96.77
2023-02-15T02:27:31.925Z,96.78
2023-02-15T02:31:35.066Z,96.85
2023-02-15T02:33:36.334Z,96.89
2023-02-15T02:35:37.655Z,96.88
2023-02-15T02:37:39.235Z,96.79
2023-02-15T02:39:40.538Z,96.87
2023-02-15T02:41:42.228Z,96.93
2023-02-15T02:43:43.858Z,96.93
2023-02-15T02:45:45.222Z,96.93
2023-02-15T02:47:47.122Z,96.94
2023-02-15T02:49:49.018Z,96.89
2023-02-15T02:51:50.207Z,96.9
2023-02-15T02:53:52.205Z,96.84
2023-02-15T02:55:53.267Z,96.87
2023-02-15T02:57:54.509Z,96.86
2023-02-15T02:59:56.389Z,96.84
2023-02-15T03:01:58.135Z,96.92
2023-02-15T03:03:59.632Z,97
2023-02-15T03:06:01.128Z,96.99
2023-02-15T03:08:02.765Z,97.04
2023-02-15T03:10:04.412Z,97.07
2023-02-15T03:12:06.449Z,97.12
2023-02-15T03:14:07.523Z,97.11
2023-02-15T03:16:09.339Z,97.07
2023-02-15T03:18:10.516Z,97.11
2023-02-15T03:20:11.861Z,97.06
2023-02-15T03:24:16.198Z,97.04
2023-02-15T03:26:16.434Z,97.13
2023-02-15T03:30:20.011Z,97.16
2023-02-15T03:32:21.255Z,97.18
2023-02-15T03:34:22.838Z,97.19
2023-02-15T03:36:24.468Z,97.21
2023-02-15T03:40:27.916Z,97.12
2023-02-15T03:42:29.887Z,97.12
2023-02-15T03:44:31.695Z,97.11
2023-02-15T03:46:33.755Z,97.18
2023-02-15T03:48:35.656Z,97.18
2023-02-15T03:50:37.268Z,97.17
2023-02-15T03:52:38.541Z,97.23
2023-02-15T03:54:40.170Z,97.33
2023-02-15T03:56:41.851Z,97.32
2023-02-15T03:58:43.347Z,97.4
2023-02-15T04:00:45.051Z,97.36
2023-02-15T04:02:46.518Z,97.39
2023-02-15T04:04:47.618Z,97.34
2023-02-15T04:06:48.651Z,97.35
2023-02-15T04:08:50.516Z,97.47
2023-02-15T04:12:54.111Z,97.41
2023-02-15T04:14:55.685Z,97.42
2023-02-15T04:16:57.668Z,97.45
2023-02-15T04:18:59.464Z,97.43
2023-02-15T04:23:02.604Z,97.39
2023-02-15T04:25:03.917Z,97.41
2023-02-15T04:27:05.511Z,97.39
2023-02-15T04:29:06.917Z,97.34
2023-02-15T04:31:08.448Z,97.31
2023-02-15T04:33:09.592Z,97.3
2023-02-15T04:35:10.878Z,97.29
2023-02-15T04:37:11.960Z,97.35
2023-02-15T04:39:13.297Z,97.39
2023-02-15T04:41:15.153Z,97.41
2023-02-15T04:43:17.200Z,97.38
2023-02-15T04:46:02.941Z,97.32
2023-02-15T04:48:03.899Z,97.37
2023-02-15T04:50:05.574Z,97.43
2023-02-15T04:52:06.886Z,97.4
2023-02-15T04:54:08.064Z,97.49
2023-02-15T04:56:09.131Z,97.45
2023-02-15T05:00:11.877Z,97.5
2023-02-15T05:02:13.778Z,97.54
2023-02-15T05:04:15.183Z,97.49
2023-02-15T05:06:17.246Z,97.49
2023-02-15T05:08:18.739Z,97.53
2023-02-15T05:10:20.141Z,97.51
2023-02-15T05:12:21.770Z,97.45
2023-02-15T05:14:22.863Z,97.52
2023-02-15T05:16:24.722Z,97.48
2023-02-15T05:18:25.859Z,97.48
2023-02-15T05:20:27.206Z,97.44
2023-02-15T05:22:29.074Z,97.49
2023-02-15T05:24:30.854Z,97.51
2023-02-15T05:26:32.459Z,97.5
2023-02-15T05:28:34.253Z,97.53
2023-02-15T05:30:35.664Z,97.53
2023-02-15T05:32:37.762Z,97.5
2023-02-15T05:34:39.194Z,97.52
2023-02-15T05:36:40.376Z,97.56
2023-02-15T05:38:41.872Z,97.54
2023-02-15T05:42:45.331Z,97.51
2023-02-15T05:44:46.509Z,97.48
2023-02-15T05:46:47.627Z,97.44
2023-02-15T05:48:49.415Z,97.43
2023-02-15T05:50:50.670Z,97.46
2023-02-15T05:52:52.553Z,97.46
2023-02-15T05:54:53.362Z,97.52
2023-02-15T05:56:55.029Z,97.52
2023-02-15T05:58:56.389Z,97.52
2023-02-15T06:00:57.483Z,97.47
2023-02-15T06:02:59.300Z,97.52
2023-02-15T06:05:01.259Z,97.5
2023-02-15T06:07:02.620Z,97.42
2023-02-15T06:09:04.116Z,97.35
2023-02-15T06:11:05.940Z,97.4
2023-02-15T06:13:07.191Z,97.41
2023-02-15T06:15:08.870Z,97.4
2023-02-15T06:17:10.779Z,97.46
2023-02-15T06:19:12.109Z,97.42
2023-02-15T06:21:13.911Z,97.39
2023-02-15T06:25:16.646Z,97.48
2023-02-15T06:27:18.021Z,97.46
2023-02-15T06:29:19.392Z,97.44
2023-02-15T06:31:21.067Z,97.5
2023-02-15T06:33:22.238Z,97.4
2023-02-15T06:35:24.226Z,97.39
2023-02-15T06:37:25.419Z,97.33
2023-02-15T06:39:27.192Z,97.37
2023-02-15T06:41:28.800Z,97.45
2023-02-15T06:43:30.566Z,97.5
2023-02-15T06:45:32.017Z,97.5
2023-02-15T06:47:33.616Z,97.61
2023-02-15T06:49:34.968Z,97.56
2023-02-15T06:51:45.112Z,97.53
2023-02-15T06:53:37.474Z,97.53
2023-02-15T06:57:40.749Z,97.63
2023-02-15T06:59:42.676Z,97.63
2023-02-15T07:01:43.886Z,97.64
2023-02-15T07:03:45.044Z,97.67
2023-02-15T07:07:48.595Z,97.7
2023-02-15T07:09:50.237Z,97.66
2023-02-15T07:11:51.397Z,97.58
2023-02-15T07:13:53.215Z,97.58
2023-02-15T07:15:54.413Z,97.61
2023-02-15T07:17:56.094Z,97.56
2023-02-15T07:19:57.684Z,97.53
2023-02-15T07:21:59.113Z,97.57
2023-02-15T07:24:00.762Z,97.66
2023-02-15T07:26:02.800Z,97.52
2023-02-15T07:28:04.657Z,97.58
2023-02-15T07:30:05.979Z,97.55
2023-02-15T07:32:07.081Z,97.52
2023-02-15T07:34:08.384Z,97.55
2023-02-15T07:36:09.619Z,97.5
2023-02-15T07:40:12.482Z,97.34
2023-02-15T07:42:14.022Z,97.31
2023-02-15T07:44:15.168Z,97.24
2023-02-15T07:46:17.235Z,97.28
2023-02-15T07:50:19.461Z,97.11
2023-02-15T07:52:21.498Z,97.07
2023-02-15T07:54:23.328Z,97.12
2023-02-15T07:56:25.146Z,97.12
2023-02-15T07:58:26.803Z,96.92
2023-02-15T08:00:27.874Z,96.96
2023-02-15T08:02:29.041Z,96.99
2023-02-15T08:04:38.173Z,97.03
2023-02-15T08:06:31.316Z,96.94
2023-02-15T08:08:33.002Z,96.87
2023-02-15T08:10:34.421Z,96.85
2023-02-15T08:12:36.154Z,96.74
2023-02-15T08:14:37.501Z,96.58
2023-02-15T08:16:39.526Z,96.32
2023-02-15T08:18:41.122Z,96.5
2023-02-15T08:20:42.885Z,96.45
2023-02-15T08:22:44.569Z,96.36
2023-02-15T08:24:45.984Z,96.13
2023-02-15T08:26:47.235Z,96.3
2023-02-15T08:28:48.996Z,96.53
2023-02-15T08:30:50.207Z,96.46
2023-02-15T08:32:51.317Z,96.58
2023-02-15T08:34:52.877Z,96.43
2023-02-15T08:38:56.059Z,96.35
2023-02-15T08:40:57.601Z,96.32
2023-02-15T08:42:58.671Z,96.22
2023-02-15T08:45:00.436Z,95.91
2023-02-15T08:49:03.446Z,95.71
2023-02-15T08:51:05.057Z,95.87
2023-02-15T08:53:06.493Z,95.86
2023-02-15T08:55:08.402Z,95.58
2023-02-15T08:57:09.591Z,95.63
2023-02-15T08:59:11.354Z,95.47
2023-02-15T09:01:12.695Z,95.25
2023-02-15T09:03:14.320Z,95.04
2023-02-15T09:05:16.193Z,94.86
2023-02-15T09:07:17.929Z,94.76
2023-02-15T09:09:19.868Z,94.68
2023-02-15T09:11:21.336Z,94.65
2023-02-15T09:13:22.668Z,94.7
2023-02-15T09:15:23.761Z,94.5
2023-02-15T09:17:25.610Z,94.42
2023-02-15T09:19:26.980Z,94.3
2023-02-15T09:21:28.612Z,94.3
2023-02-15T09:23:29.754Z,94.19
2023-02-15T09:25:31.228Z,94.28
2023-02-15T09:27:32.500Z,94.27
2023-02-15T09:29:42.855Z,94.16
2023-02-15T09:31:35.616Z,93.89
2023-02-15T09:33:36.797Z,93.96
2023-02-15T09:35:38.621Z,93.78
2023-02-15T09:37:40.237Z,93.81
2023-02-15T09:39:41.819Z,93.29
2023-02-15T09:41:42.857Z,93.27
2023-02-15T09:43:44.139Z,93.22
2023-02-15T09:45:45.206Z,92.71
2023-02-15T09:47:47.091Z,92.69
2023-02-15T09:49:48.720Z,92.53
2023-02-15T09:51:50.529Z,92.89
2023-02-15T09:53:51.669Z,92.3
2023-02-15T09:55:53.389Z,92.53
2023-02-15T09:57:54.922Z,92.36
2023-02-15T09:59:56.323Z,92.46
2023-02-15T10:03:58.909Z,92.66
2023-02-15T10:06:00.585Z,93.1
2023-02-15T10:08:02.417Z,92.85
2023-02-15T10:10:04.191Z,93.09
2023-02-15T10:14:07.235Z,92.82
2023-02-15T10:16:08.386Z,92.52
2023-02-15T10:18:09.983Z,92.48
2023-02-15T10:20:11.844Z,92.02
2023-02-15T10:22:13.585Z,92.41
2023-02-15T10:24:14.754Z,92.52
2023-02-15T10:26:15.910Z,92.7
2023-02-15T10:28:17.334Z,92.35
2023-02-15T10:30:18.620Z,92.63
2023-02-15T10:32:20.537Z,92.45
2023-02-15T10:36:24.099Z,91.52
2023-02-15T10:38:25.674Z,91.92
2023-02-15T10:40:27.525Z,91.88
2023-02-15T10:42:28.987Z,90.93
2023-02-15T10:46:32.199Z,89.5
2023-02-15T10:48:33.249Z,89.67
2023-02-15T10:50:34.623Z,89.65
2023-02-15T10:52:35.643Z,89.14
2023-02-15T10:54:37.183Z,89.35
2023-02-15T10:56:38.968Z,88.51
2023-02-15T10:58:39.995Z,88.17
2023-02-15T11:00:41.079Z,86.15
2023-02-15T11:02:42.522Z,86.46
2023-02-15T11:04:44.233Z,85.65
2023-02-15T11:06:45.821Z,85.05
2023-02-15T11:08:47.210Z,86.67
2023-02-15T11:10:48.256Z,85.5
2023-02-15T11:12:49.312Z,85.36
2023-02-15T11:14:50.950Z,84.99
2023-02-15T11:16:52.032Z,85.22
2023-02-15T11:18:53.341Z,84.09
2023-02-15T11:20:54.666Z,85.56
2023-02-15T11:22:56.917Z,83.41
2023-02-15T11:24:58.751Z,84.08
2023-02-15T11:29:01.338Z,82.91
2023-02-15T11:31:03.388Z,82.17
2023-02-15T11:31:47.011Z,81.63
2023-02-15T11:33:48.755Z,80.29
2023-02-15T11:35:50.508Z,80.81
2023-02-15T11:37:51.734Z,79.35
2023-02-15T11:39:52.996Z,81.25
2023-02-15T11:41:54.864Z,80.43
2023-02-15T11:43:55.905Z,80.73
2023-02-15T11:45:57.465Z,80.67
2023-02-15T11:47:58.477Z,80.22
2023-02-15T11:50:00.177Z,80.8
2023-02-15T11:52:01.168Z,78.61
2023-02-15T11:54:02.560Z,79.11
2023-02-15T11:56:03.616Z,80.52
2023-02-15T11:58:04.554Z,78.56
2023-02-15T12:00:05.489Z,79.35
2023-02-15T12:02:07.343Z,79.84
2023-02-15T12:04:08.948Z,78.86
2023-02-15T12:06:10.248Z,79.01
2023-02-15T12:08:11.845Z,77.5
2023-02-15T12:10:13.421Z,78.56
2023-02-15T12:12:14.963Z,79.23
2023-02-15T12:14:15.915Z,78.23
2023-02-15T12:16:17.015Z,78.12
2023-02-15T12:18:18.908Z,80.07
2023-02-15T12:22:21.483Z,79.17
2023-02-15T12:24:22.833Z,78.65
2023-02-15T12:26:24.460Z,77.93
2023-02-15T12:28:26.243Z,76.84
2023-02-15T12:30:27.930Z,76.39
2023-02-15T12:32:29.131Z,76.98
2023-02-15T12:34:30.725Z,76.27
2023-02-15T12:36:32.579Z,77
2023-02-15T12:38:34.137Z,76.26
2023-02-15T12:40:35.743Z,75.99
2023-02-15T12:42:37.238Z,75.99
2023-02-15T12:44:38.766Z,77.18
2023-02-15T12:46:40.239Z,77.12
2023-02-15T12:48:41.431Z,77.14
2023-02-15T12:50:42.679Z,76.24
2023-02-15T12:54:45.087Z,76.82
2023-02-15T12:56:46.797Z,75.05
2023-02-15T12:58:48.258Z,77.79
2023-02-15T13:00:49.228Z,75.32
2023-02-15T13:04:51.857Z,76.7
2023-02-15T13:06:53.428Z,77.02
2023-02-15T13:08:54.797Z,76.63
2023-02-15T13:10:56.610Z,76.75
2023-02-15T13:12:57.786Z,75.41
2023-02-15T13:14:59.629Z,77.38
2023-02-15T13:17:01.185Z,75.94
2023-02-15T13:19:02.918Z,76.58
2023-02-15T13:21:04.063Z,76.62
2023-02-15T13:23:06.264Z,75.15
2023-02-15T13:25:07.449Z,74.45
2023-02-15T13:27:15.332Z,75.39
2023-02-15T13:29:09.790Z,75.47
2023-02-15T13:33:12.770Z,74.26
2023-02-15T13:35:14.184Z,74.87
2023-02-15T13:37:16.303Z,74.04
2023-02-15T13:39:18.105Z,73.5
2023-02-15T13:41:19.242Z,73.04
2023-02-15T13:43:21.120Z,73.1
2023-02-15T13:47:23.021Z,74.75
2023-02-15T13:49:24.480Z,75.16
2023-02-15T13:53:26.952Z,72.52
2023-02-15T13:55:28.647Z,72.56
2023-02-15T13:57:30.016Z,71.47
2023-02-15T13:59:30.989Z,70.85
2023-02-15T14:03:33.076Z,73.51
2023-02-15T14:05:34.814Z,73.52
2023-02-15T14:07:36.221Z,73.12
2023-02-15T14:09:37.464Z,72.09
2023-02-15T14:11:39.032Z,71.56
2023-02-15T14:13:40.339Z,72.14
2023-02-15T14:15:41.231Z,70.84
2023-02-15T14:17:42.184Z,70.39
2023-02-15T14:19:43.667Z,73.03
2023-02-15T14:21:44.625Z,73.52
2023-02-15T14:23:45.910Z,73.03
2023-02-15T14:25:47.077Z,71.49
2023-02-15T14:27:48.661Z,70.32
2023-02-15T14:29:50.120Z,70.75
2023-02-15T14:31:51.275Z,71.28
2023-02-15T14:33:52.513Z,70.37
2023-02-15T14:35:53.664Z,71.35
2023-02-15T14:37:54.943Z,70.81
2023-02-15T14:39:55.638Z,70.84
2023-02-15T14:41:57.157Z,70.97
2023-02-15T14:46:00.564Z,69.07
2023-02-15T14:48:02.126Z,69.13
2023-02-15T14:50:03.964Z,69.46
2023-02-15T14:52:04.867Z,69.31
2023-02-15T14:54:05.977Z,67.67
2023-02-15T14:56:09.226Z,69.19
2023-02-15T14:58:09.287Z,70.36
2023-02-15T15:00:10.502Z,69.96
2023-02-15T15:02:11.725Z,71.12
2023-02-15T15:04:21.292Z,71.91
2023-02-15T15:06:14.940Z,71.28
2023-02-15T15:08:17.221Z,70.59
2023-02-15T15:10:19.012Z,70.83
2023-02-15T15:12:20.172Z,71.71
2023-02-15T15:14:21.891Z,70.96
2023-02-15T15:16:22.990Z,69.81
2023-02-15T15:18:24.698Z,69.46
2023-02-15T15:20:26.460Z,71.52
2023-02-15T15:22:28.048Z,73.14
2023-02-15T15:24:30.679Z,74.04
2023-02-15T15:28:33.503Z,77.62
2023-02-15T15:30:35.065Z,78.04
2023-02-15T15:32:36.142Z,77.89
2023-02-15T15:34:38.457Z,78.31
2023-02-15T15:36:39.661Z,78.44
2023-02-15T15:38:40.750Z,79.02
2023-02-15T15:40:42.290Z,78.53
2023-02-15T15:42:43.632Z,79.56
2023-02-15T15:44:44.966Z,79.59
2023-02-15T15:46:46.760Z,80
2023-02-15T15:48:47.934Z,80.14
2023-02-15T15:50:49.730Z,80.45
2023-02-15T15:52:50.663Z,81.09
2023-02-15T15:54:52.243Z,81.35
2023-02-15T15:56:53.378Z,81.99
2023-02-15T16:00:56.645Z,82.06
2023-02-15T16:02:57.887Z,81.15
2023-02-15T16:04:58.833Z,82.66
2023-02-15T16:07:00.714Z,83.27
2023-02-15T16:11:03.113Z,84.46
2023-02-15T16:13:04.409Z,85.13
2023-02-15T16:15:05.459Z,85.67
2023-02-15T16:17:07.351Z,86.22
2023-02-15T16:19:18.080Z,86.65
2023-02-15T16:21:10.041Z,87.14
2023-02-15T16:23:11.330Z,87.69
2023-02-15T16:27:47.038Z,88.22
2023-02-15T16:31:27.367Z,88.83
2023-02-15T16:33:18.896Z,89.39
2023-02-15T16:37:21.659Z,89.93
2023-02-15T16:39:22.916Z,90.22
2023-02-15T16:41:23.923Z,90.48
2023-02-15T16:43:25.423Z,90.87
2023-02-15T16:45:26.914Z,91.01
2023-02-15T16:47:28.624Z,91.08
2023-02-15T16:49:30.218Z,91.1
2023-02-15T16:53:33.463Z,91.4
2023-02-15T16:55:35.225Z,91.29
2023-02-15T16:59:38.058Z,91.6
2023-02-15T17:01:39.148Z,91.71
2023-02-15T17:03:41.231Z,92.04
2023-02-15T17:05:42.316Z,92.05
2023-02-15T17:09:44.831Z,92.12
2023-02-15T17:11:46.172Z,92.08
2023-02-15T17:13:47.214Z,92.09
2023-02-15T17:15:48.753Z,92.14
2023-02-15T17:17:49.797Z,92.44
2023-02-15T17:19:51.292Z,92.58
2023-02-15T17:21:52.397Z,92.48
2023-02-15T17:23:53.984Z,92.7
2023-02-15T17:25:55.665Z,92.88
2023-02-15T17:27:57.557Z,92.84
2023-02-15T17:29:59.389Z,93.31
2023-02-15T17:32:01.367Z,93.32
2023-02-15T17:34:03.116Z,93.24
2023-02-15T17:36:05.130Z,93.14
2023-02-15T17:38:06.713Z,93.03
2023-02-15T17:40:08.068Z,93.25
2023-02-15T17:42:09.401Z,92.93
2023-02-15T17:44:11.067Z,93.2
2023-02-15T17:46:13.002Z,93.11
2023-02-15T17:48:14.405Z,92.92
2023-02-15T17:52:18.444Z,92.82
2023-02-15T17:54:20.169Z,93
2023-02-15T17:56:21.541Z,93.13
2023-02-15T17:58:22.621Z,93.31
2023-02-15T18:00:24.187Z,93.3
2023-02-15T18:02:25.633Z,93.42
2023-02-15T18:04:27.336Z,93.6
2023-02-15T18:06:29.080Z,93.68
2023-02-15T18:08:30.382Z,93.74
2023-02-15T18:10:32.387Z,93.71
2023-02-15T18:12:33.934Z,93.87
2023-02-15T18:14:35.880Z,94.09
2023-02-15T18:16:37.177Z,94.2
2023-02-15T18:17:21.058Z,94.22
2023-02-15T18:19:22.675Z,94.29
2023-02-15T18:21:24.396Z,94.33
2023-02-15T18:23:25.992Z,94.42
2023-02-15T18:25:27.656Z,94.53
2023-02-15T18:29:31.075Z,94.33
2023-02-15T18:31:32.792Z,94.48
2023-02-15T18:33:34.558Z,94.63
2023-02-15T18:35:35.656Z,94.85
2023-02-15T18:37:37.673Z,95
2023-02-15T18:39:39.371Z,95.14
2023-02-15T18:41:41.127Z,95.14
2023-02-15T18:43:42.449Z,95.14
2023-02-15T18:45:43.999Z,95.28
2023-02-15T18:47:45.411Z,95.36
2023-02-15T18:49:46.473Z,95.51
2023-02-15T18:51:48.298Z,95.7
2023-02-15T18:53:49.589Z,95.65
2023-02-15T18:55:51.004Z,95.69
2023-02-15T18:57:52.470Z,95.63
2023-02-15T18:59:54.053Z,95.61
2023-02-15T19:01:55.930Z,95.67
2023-02-15T19:03:57.465Z,95.72
2023-02-15T19:05:58.948Z,95.64
2023-02-15T19:08:00.489Z,95.6
2023-02-15T19:12:03.083Z,95.48
2023-02-15T19:14:05.086Z,95.56
2023-02-15T19:16:06.159Z,95.61
2023-02-15T19:18:07.626Z,95.7
2023-02-15T19:20:08.866Z,95.66
2023-02-15T19:22:10.007Z,95.66
2023-02-15T19:24:11.715Z,95.75
2023-02-15T19:28:15.418Z,95.65
2023-02-15T19:30:17.486Z,95.65
2023-02-15T19:32:18.924Z,95.61
2023-02-15T19:34:20.334Z,96.03
2023-02-15T19:36:22.141Z,96.43
2023-02-15T19:38:23.207Z,96.4
2023-02-15T19:40:24.350Z,96.32
2023-02-15T19:42:25.822Z,96.31
2023-02-15T19:44:27.478Z,96.36
2023-02-15T19:46:28.840Z,96.44
2023-02-15T19:48:30.427Z,96.4
2023-02-15T19:50:31.938Z,96.42
2023-02-15T19:54:35.233Z,96.35
2023-02-15T19:56:36.551Z,96.5
2023-02-15T19:58:38.357Z,96.65
2023-02-15T20:00:39.767Z,96.62
2023-02-15T20:02:41.323Z,96.59
2023-02-15T20:04:42.864Z,96.6
2023-02-15T20:06:44.524Z,96.69
2023-02-15T20:08:45.713Z,96.83
2023-02-15T20:10:46.936Z,97.05
2023-02-15T20:12:48.673Z,97.14
2023-02-15T20:14:50.060Z,97.1
2023-02-15T20:16:51.315Z,97.19
2023-02-15T20:18:52.813Z,97.18
2023-02-15T20:20:54.217Z,97.15
2023-02-15T20:22:55.821Z,97.09
2023-02-15T20:24:57.535Z,97.09
2023-02-15T20:26:58.938Z,97.09
2023-02-15T20:29:00.506Z,97.08
2023-02-15T20:31:02.300Z,97.06
2023-02-15T20:33:03.251Z,97.04
2023-02-15T20:35:04.991Z,96.97
2023-02-15T20:37:06.218Z,96.96
2023-02-15T20:39:07.484Z,97.05
2023-02-15T20:41:09.289Z,97.2
2023-02-15T20:43:11.334Z,97.21
2023-02-15T20:47:14.425Z,97.26
2023-02-15T20:49:15.796Z,97.24
2023-02-15T20:53:18.752Z,97.21
2023-02-15T20:55:19.966Z,97.2
2023-02-15T20:57:21.230Z,97.2
2023-02-15T20:59:23.207Z,97.19
2023-02-15T21:01:24.901Z,97.18
2023-02-15T21:03:26.644Z,97.2
2023-02-15T21:05:28.416Z,97.25
2023-02-15T21:07:29.300Z,97.26
2023-02-15T21:09:31.259Z,97.27
2023-02-15T21:11:33.215Z,97.31
2023-02-15T21:13:35.101Z,97.34
2023-02-15T21:15:36.784Z,97.38
2023-02-15T21:17:38.105Z,97.42
2023-02-15T21:19:41.045Z,97.42
2023-02-15T21:21:40.964Z,97.45
2023-02-15T21:25:44.745Z,97.52
2023-02-15T21:27:45.188Z,97.51
2023-02-15T21:29:46.410Z,97.52
2023-02-15T21:31:48.382Z,97.56
2023-02-15T21:35:51.336Z,97.58
2023-02-15T21:37:52.718Z,97.59
2023-02-15T21:39:54.555Z,97.6
2023-02-15T21:41:56.508Z,97.61
2023-02-15T21:43:57.690Z,97.58
2023-02-15T21:45:59.586Z,97.62
2023-02-15T21:48:00.748Z,97.59
2023-02-15T21:50:02.198Z,97.62
2023-02-15T21:52:03.564Z,97.65
2023-02-15T21:54:04.625Z,97.68
2023-02-15T21:56:06.285Z,97.68
2023-02-15T21:58:07.634Z,97.69
2023-02-15T22:00:08.871Z,97.7
2023-02-15T22:02:09.843Z,97.73
2023-02-15T22:04:11.318Z,97.72
2023-02-15T22:06:12.939Z,97.73
2023-02-15T22:08:14.433Z,97.74
2023-02-15T22:10:15.724Z,97.72
2023-02-15T22:12:17.535Z,97.75
2023-02-15T22:14:19.059Z,97.8
2023-02-15T22:18:22.694Z,97.81
2023-02-15T22:20:24.029Z,97.83
2023-02-15T22:22:25.750Z,97.81
2023-02-15T22:24:27.449Z,97.84
2023-02-15T22:26:29.397Z,97.85
2023-02-15T22:28:30.519Z,97.82
2023-02-15T22:30:32.139Z,97.84
2023-02-15T22:32:33.867Z,97.88
2023-02-15T22:34:35.124Z,97.91
2023-02-15T22:36:36.570Z,97.88
2023-02-15T22:38:38.000Z,97.93
2023-02-15T22:40:39.815Z,97.95
2023-02-15T22:42:41.746Z,97.94
2023-02-15T22:44:43.299Z,97.98
2023-02-15T22:46:45.225Z,97.95
2023-02-15T22:48:46.903Z,97.95
2023-02-15T22:50:48.892Z,97.94
2023-02-15T22:52:50.055Z,97.97
2023-02-15T22:54:51.233Z,97.96
2023-02-15T22:56:52.969Z,97.98
2023-02-15T23:00:56.083Z,98.01
2023-02-15T23:02:57.434Z,98.03
2023-02-15T23:04:59.561Z,98.05
2023-02-15T23:07:00.840Z,98.02
2023-02-15T23:11:03.869Z,97.96
2023-02-15T23:13:05.095Z,97.96
2023-02-15T23:15:06.841Z,97.98
2023-02-15T23:17:08.913Z,97.99
2023-02-15T23:19:10.522Z,97.96
2023-02-15T23:21:12.403Z,97.95
2023-02-15T23:23:14.140Z,97.97
2023-02-15T23:25:15.362Z,97.94
2023-02-15T23:27:17.102Z,97.97
2023-02-15T23:29:18.404Z,97.97
2023-02-15T23:33:22.307Z,97.99
2023-02-15T23:35:23.855Z,98
2023-02-15T23:37:24.960Z,98.01
2023-02-15T23:39:26.433Z,97.99
2023-02-15T23:43:29.865Z,97.98
2023-02-15T23:45:31.739Z,97.98
2023-02-15T23:47:33.330Z,97.98
2023-02-15T23:49:34.789Z,97.96
2023-02-15T23:51:36.764Z,97.99
2023-02-15T23:53:38.383Z,97.98
2023-02-15T23:55:39.644Z,97.93
2023-02-15T23:57:40.819Z,97.9
2023-02-15T23:59:42.847Z,97.94
